Time,TemperatureF,DewpointF,PressureIn,WindDirection,WindDirectionDegrees,WindSpeedMPH,WindSpeedGustMPH,Humidity,HourlyPrecipIn,Conditions,Clouds,dailyrainin,SoftwareType,DateUTC
2013-02-14 00:00:00,41.0,30.5,29.64,West,270,2.5,3.6,66,0.00,,,0.00,WUHU216HW,2013-02-14 06:00:00,
2013-02-14 00:05:00,40.9,30.7,29.65,WNW,293,1.1,3.6,67,0.00,,,0.00,WUHU216HW,2013-02-14 06:05:00,
2013-02-14 00:10:00,40.7,30.5,29.65,West,270,1.3,3.4,67,0.00,,,0.00,WUHU216HW,2013-02-14 06:10:00,
2013-02-14 00:15:00,40.3,30.2,29.65,WNW,293,0.7,2.9,67,0.00,,,0.00,WUHU216HW,2013-02-14 06:15:00,
2013-02-14 00:20:00,40.0,30.3,29.65,West,270,3.1,3.1,68,0.00,,,0.00,WUHU216HW,2013-02-14 06:20:00,
2013-02-14 00:25:00,40.0,30.3,29.65,West,270,3.8,4.5,68,0.00,,,0.00,WUHU216HW,2013-02-14 06:25:00,
2013-02-14 00:30:00,40.0,30.3,29.66,West,270,2.9,4.9,68,0.00,,,0.00,WUHU216HW,2013-02-14 06:30:00,
2013-02-14 00:35:00,40.7,31.0,29.66,WNW,293,4.7,6.7,68,0.00,,,0.00,WUHU216HW,2013-02-14 06:35:00,
2013-02-14 00:40:00,40.9,30.7,29.66,WNW,293,2.7,6.7,67,0.00,,,0.00,WUHU216HW,2013-02-14 06:40:00,
2013-02-14 00:45:00,40.9,30.7,29.66,West,270,2.2,6.0,67,0.00,,,0.00,WUHU216HW,2013-02-14 06:45:00,
2013-02-14 00:50:00,40.9,30.7,29.66,WNW,293,1.6,6.0,67,0.00,,,0.00,WUHU216HW,2013-02-14 06:50:00,
2013-02-14 00:55:00,40.9,31.2,29.66,NNE,23,0.7,5.1,68,0.00,,,0.00,WUHU216HW,2013-02-14 06:55:00,
2013-02-14 01:00:00,40.9,31.2,29.66,WNW,293,4.7,5.1,68,0.00,,,0.00,WUHU216HW,2013-02-14 07:00:00,
2013-02-14 01:05:00,40.7,31.0,29.66,WNW,293,2.2,4.7,68,0.00,,,0.00,WUHU216HW,2013-02-14 07:05:00,
2013-02-14 01:10:00,40.9,31.2,29.67,WNW,293,3.8,6.9,68,0.00,,,0.00,WUHU216HW,2013-02-14 07:10:00,
2013-02-14 01:15:00,40.9,31.2,29.66,WNW,293,2.5,6.9,68,0.00,,,0.00,WUHU216HW,2013-02-14 07:15:00,
2013-02-14 01:20:00,40.9,31.2,29.67,NW,315,6.3,6.3,68,0.00,,,0.00,WUHU216HW,2013-02-14 07:20:00,
2013-02-14 01:25:00,41.0,31.3,29.67,WNW,293,3.6,6.7,68,0.00,,,0.00,WUHU216HW,2013-02-14 07:25:00,
2013-02-14 01:30:00,40.9,31.2,29.67,West,270,4.3,6.7,68,0.00,,,0.00,WUHU216HW,2013-02-14 07:30:00,
2013-02-14 01:35:00,40.7,31.3,29.67,West,270,3.4,6.9,69,0.00,,,0.00,WUHU216HW,2013-02-14 07:35:00,
2013-02-14 01:40:00,40.5,31.5,29.67,WNW,293,5.4,7.6,70,0.00,,,0.00,WUHU216HW,2013-02-14 07:40:00,
2013-02-14 01:45:00,40.3,31.3,29.67,NW,315,2.9,7.6,70,0.00,,,0.00,WUHU216HW,2013-02-14 07:45:00,
2013-02-14 01:50:00,40.1,31.5,29.67,NW,315,2.2,5.4,71,0.00,,,0.00,WUHU216HW,2013-02-14 07:50:00,
2013-02-14 01:55:00,40.0,31.3,29.68,WNW,293,5.6,5.6,71,0.00,,,0.00,WUHU216HW,2013-02-14 07:55:00,
2013-02-14 02:00:00,40.0,31.3,29.68,WNW,293,2.2,6.3,71,0.00,,,0.00,WUHU216HW,2013-02-14 08:00:00,
2013-02-14 02:05:00,39.8,31.2,29.68,WNW,293,4.7,6.9,71,0.00,,,0.00,WUHU216HW,2013-02-14 08:05:00,
2013-02-14 02:10:00,39.6,31.3,29.68,NW,315,5.1,6.9,72,0.00,,,0.00,WUHU216HW,2013-02-14 08:10:00,
2013-02-14 02:15:00,39.6,31.3,29.68,WNW,293,3.4,6.0,72,0.00,,,0.00,WUHU216HW,2013-02-14 08:15:00,
2013-02-14 02:20:00,39.6,31.3,29.68,WSW,248,5.6,6.0,72,0.00,,,0.00,WUHU216HW,2013-02-14 08:20:00,
2013-02-14 02:25:00,39.4,31.2,29.69,North,0,4.7,9.8,72,0.00,,,0.00,WUHU216HW,2013-02-14 08:25:00,
2013-02-14 02:30:00,39.2,31.2,29.69,WNW,293,6.0,9.8,73,0.00,,,0.00,WUHU216HW,2013-02-14 08:30:00,
2013-02-14 02:35:00,38.9,31.0,29.69,West,270,2.0,6.9,73,0.00,,,0.00,WUHU216HW,2013-02-14 08:35:00,
2013-02-14 02:40:00,38.7,31.2,29.69,WNW,293,4.7,6.9,74,0.00,,,0.00,WUHU216HW,2013-02-14 08:40:00,
2013-02-14 02:45:00,38.5,31.0,29.70,North,0,2.7,6.3,74,0.00,,,0.00,WUHU216HW,2013-02-14 08:45:00,
2013-02-14 02:50:00,38.5,31.0,29.70,WNW,293,4.0,5.8,74,0.00,,,0.00,WUHU216HW,2013-02-14 08:50:00,
2013-02-14 02:55:00,38.5,31.0,29.70,West,270,4.7,5.8,74,0.00,,,0.00,WUHU216HW,2013-02-14 08:55:00,
2013-02-14 03:00:00,38.3,30.8,29.70,WNW,293,2.9,6.0,74,0.00,,,0.00,WUHU216HW,2013-02-14 09:00:00,
2013-02-14 03:05:00,38.3,30.8,29.70,WNW,293,4.5,6.0,74,0.00,,,0.00,WUHU216HW,2013-02-14 09:05:00,
2013-02-14 03:10:00,38.5,31.0,29.70,North,0,3.8,4.9,74,0.00,,,0.00,WUHU216HW,2013-02-14 09:10:00,
2013-02-14 03:15:00,38.7,31.2,29.70,NW,315,3.1,5.8,74,0.00,,,0.00,WUHU216HW,2013-02-14 09:15:00,
2013-02-14 03:20:00,38.7,31.2,29.70,WNW,293,4.3,5.8,74,0.00,,,0.00,WUHU216HW,2013-02-14 09:20:00,
2013-02-14 03:25:00,38.5,31.0,29.70,WNW,293,2.5,5.4,74,0.00,,,0.00,WUHU216HW,2013-02-14 09:25:00,
2013-02-14 03:30:00,38.0,30.8,29.70,West,270,2.0,4.3,75,0.00,,,0.00,WUHU216HW,2013-02-14 09:30:00,
2013-02-14 03:35:00,37.4,30.2,29.70,West,270,3.4,4.0,75,0.00,,,0.00,WUHU216HW,2013-02-14 09:35:00,
2013-02-14 03:40:00,37.1,30.5,29.70,WNW,293,2.5,4.7,77,0.00,,,0.00,WUHU216HW,2013-02-14 09:40:00,
2013-02-14 03:45:00,37.1,30.3,29.70,NW,315,3.4,4.7,76,0.00,,,0.00,WUHU216HW,2013-02-14 09:45:00,
2013-02-14 03:50:00,36.7,29.9,29.70,WNW,293,2.5,3.4,76,0.00,,,0.00,WUHU216HW,2013-02-14 09:50:00,
2013-02-14 03:55:00,36.7,30.2,29.70,WNW,293,6.0,6.0,77,0.00,,,0.00,WUHU216HW,2013-02-14 09:55:00,
2013-02-14 04:00:00,36.9,30.1,29.70,WSW,248,2.0,6.0,76,0.00,,,0.00,WUHU216HW,2013-02-14 10:00:00,
2013-02-14 04:05:00,37.1,30.3,29.70,NW,315,3.6,6.9,76,0.00,,,0.00,WUHU216HW,2013-02-14 10:05:00,
2013-02-14 04:10:00,37.1,30.3,29.70,NW,315,5.8,6.9,76,0.00,,,0.00,WUHU216HW,2013-02-14 10:10:00,
2013-02-14 04:15:00,36.9,30.1,29.70,West,270,4.7,5.8,76,0.00,,,0.00,WUHU216HW,2013-02-14 10:15:00,
2013-02-14 04:20:00,36.7,29.9,29.71,West,270,3.8,5.8,76,0.00,,,0.00,WUHU216HW,2013-02-14 10:20:00,
2013-02-14 04:25:00,36.5,30.0,29.72,WNW,293,4.3,6.0,77,0.00,,,0.00,WUHU216HW,2013-02-14 10:25:00,
2013-02-14 04:30:00,36.4,29.8,29.72,West,270,4.7,6.0,77,0.00,,,0.00,WUHU216HW,2013-02-14 10:30:00,
2013-02-14 04:35:00,36.2,30.0,29.72,WNW,293,5.4,6.0,78,0.00,,,0.00,WUHU216HW,2013-02-14 10:35:00,
2013-02-14 04:40:00,36.2,30.0,29.73,WNW,293,3.4,6.5,78,0.00,,,0.00,WUHU216HW,2013-02-14 10:40:00,
2013-02-14 04:45:00,36.0,29.8,29.72,NW,315,3.4,6.5,78,0.00,,,0.00,WUHU216HW,2013-02-14 10:45:00,
2013-02-14 04:50:00,35.8,29.9,29.72,West,270,3.4,5.1,79,0.00,,,0.00,WUHU216HW,2013-02-14 10:50:00,
2013-02-14 04:55:00,35.6,29.7,29.71,WNW,293,1.8,6.3,79,0.00,,,0.00,WUHU216HW,2013-02-14 10:55:00,
2013-02-14 05:00:00,35.6,29.7,29.71,NNW,338,5.4,6.3,79,0.00,,,0.00,WUHU216HW,2013-02-14 11:00:00,
2013-02-14 05:05:00,35.5,29.5,29.72,WSW,248,4.5,6.9,79,0.00,,,0.00,WUHU216HW,2013-02-14 11:05:00,
2013-02-14 05:10:00,35.5,29.9,29.73,WNW,293,1.3,7.2,80,0.00,,,0.00,WUHU216HW,2013-02-14 11:10:00,
2013-02-14 05:15:00,35.5,29.9,29.73,NNW,338,4.5,7.2,80,0.00,,,0.00,WUHU216HW,2013-02-14 11:15:00,
2013-02-14 05:20:00,35.3,29.3,29.73,NNW,338,0.9,4.5,79,0.00,,,0.00,WUHU216HW,2013-02-14 11:20:00,
2013-02-14 05:25:00,35.1,29.5,29.74,North,0,2.5,4.5,80,0.00,,,0.00,WUHU216HW,2013-02-14 11:25:00,
2013-02-14 05:30:00,34.9,29.3,29.74,WNW,293,1.6,3.6,80,0.00,,,0.00,WUHU216HW,2013-02-14 11:30:00,
2013-02-14 05:35:00,34.6,29.0,29.75,WNW,293,1.1,2.5,80,0.00,,,0.00,WUHU216HW,2013-02-14 11:35:00,
2013-02-14 05:40:00,34.4,28.8,29.75,NW,315,2.0,2.9,80,0.00,,,0.00,WUHU216HW,2013-02-14 11:40:00,
2013-02-14 05:45:00,34.4,29.1,29.75,WNW,293,1.8,3.4,81,0.00,,,0.00,WUHU216HW,2013-02-14 11:45:00,
2013-02-14 05:50:00,34.6,29.3,29.75,NW,315,2.2,3.6,81,0.00,,,0.00,WUHU216HW,2013-02-14 11:50:00,
2013-02-14 05:55:00,34.7,29.4,29.74,WNW,293,2.2,5.1,81,0.00,,,0.00,WUHU216HW,2013-02-14 11:55:00,
2013-02-14 06:00:00,34.7,29.4,29.75,WNW,293,2.5,5.1,81,0.00,,,0.00,WUHU216HW,2013-02-14 12:00:00,
2013-02-14 06:05:00,34.6,29.3,29.75,West,270,2.0,4.7,81,0.00,,,0.00,WUHU216HW,2013-02-14 12:05:00,
2013-02-14 06:10:00,34.7,29.2,29.75,North,0,2.7,6.3,80,0.00,,,0.00,WUHU216HW,2013-02-14 12:10:00,
2013-02-14 06:15:00,34.7,29.2,29.76,WNW,293,2.2,6.7,80,0.00,,,0.00,WUHU216HW,2013-02-14 12:15:00,
2013-02-14 06:20:00,34.7,29.2,29.76,WNW,293,6.3,6.7,80,0.00,,,0.00,WUHU216HW,2013-02-14 12:20:00,
2013-02-14 06:25:00,34.6,29.0,29.76,NW,315,4.0,6.3,80,0.00,,,0.00,WUHU216HW,2013-02-14 12:25:00,
2013-02-14 06:30:00,34.6,29.0,29.77,WNW,293,4.0,6.3,80,0.00,,,0.00,WUHU216HW,2013-02-14 12:30:00,
2013-02-14 06:35:00,34.6,29.0,29.78,NW,315,8.1,8.1,80,0.00,,,0.00,WUHU216HW,2013-02-14 12:35:00,
2013-02-14 06:40:00,34.6,29.0,29.78,West,270,3.4,8.1,80,0.00,,,0.00,WUHU216HW,2013-02-14 12:40:00,
2013-02-14 06:45:00,34.4,28.8,29.78,NW,315,2.9,8.1,80,0.00,,,0.00,WUHU216HW,2013-02-14 12:45:00,
2013-02-14 06:50:00,34.4,28.8,29.78,West,270,3.1,4.0,80,0.00,,,0.00,WUHU216HW,2013-02-14 12:50:00,
2013-02-14 06:55:00,34.4,29.1,29.79,West,270,2.2,3.4,81,0.00,,,0.00,WUHU216HW,2013-02-14 12:55:00,
2013-02-14 07:00:00,34.6,29.3,29.79,WNW,293,3.4,3.6,81,0.00,,,0.00,WUHU216HW,2013-02-14 13:00:00,
2013-02-14 07:05:00,34.6,29.3,29.79,West,270,1.8,3.8,81,0.00,,,0.00,WUHU216HW,2013-02-14 13:05:00,
2013-02-14 07:10:00,34.6,29.3,29.79,WNW,293,2.7,4.0,81,0.00,,,0.00,WUHU216HW,2013-02-14 13:10:00,
2013-02-14 07:15:00,34.4,29.1,29.80,WNW,293,1.8,4.0,81,0.00,,,0.00,WUHU216HW,2013-02-14 13:15:00,
2013-02-14 07:20:00,34.2,28.9,29.80,WNW,293,4.0,4.7,81,0.00,,,0.00,WUHU216HW,2013-02-14 13:20:00,
2013-02-14 07:25:00,34.0,28.7,29.80,West,270,2.2,4.7,81,0.00,,,0.00,WUHU216HW,2013-02-14 13:25:00,
2013-02-14 07:30:00,33.8,28.5,29.80,WNW,293,2.5,5.1,81,0.00,,,0.00,WUHU216HW,2013-02-14 13:30:00,
2013-02-14 07:35:00,33.5,28.3,29.80,WNW,293,2.5,5.6,81,0.00,,,0.00,WUHU216HW,2013-02-14 13:35:00,
2013-02-14 07:40:00,33.5,28.3,29.80,West,270,2.5,5.6,81,0.00,,,0.00,WUHU216HW,2013-02-14 13:40:00,
2013-02-14 07:45:00,33.7,28.4,29.80,WNW,293,1.6,5.4,81,0.00,,,0.00,WUHU216HW,2013-02-14 13:45:00,
2013-02-14 07:50:00,33.5,28.3,29.80,WSW,248,2.2,4.0,81,0.00,,,0.00,WUHU216HW,2013-02-14 13:50:00,
2013-02-14 07:55:00,33.7,28.4,29.80,North,0,1.1,4.0,81,0.00,,,0.00,WUHU216HW,2013-02-14 13:55:00,
2013-02-14 08:00:00,33.7,28.4,29.80,NW,315,2.7,4.0,81,0.00,,,0.00,WUHU216HW,2013-02-14 14:00:00,
2013-02-14 08:05:00,33.8,28.5,29.80,West,270,1.8,3.8,81,0.00,,,0.00,WUHU216HW,2013-02-14 14:05:00,
2013-02-14 08:10:00,34.2,29.2,29.80,NNW,338,3.1,3.1,82,0.00,,,0.00,WUHU216HW,2013-02-14 14:10:00,
2013-02-14 08:15:00,34.2,29.2,29.80,NW,315,0.7,3.1,82,0.00,,,0.00,WUHU216HW,2013-02-14 14:15:00,
2013-02-14 08:20:00,34.4,29.1,29.80,West,270,1.8,3.1,81,0.00,,,0.00,WUHU216HW,2013-02-14 14:20:00,
2013-02-14 08:25:00,34.6,29.3,29.80,West,270,0.7,2.5,81,0.00,,,0.00,WUHU216HW,2013-02-14 14:25:00,
2013-02-14 08:30:00,34.9,29.6,29.81,West,270,2.2,2.5,81,0.00,,,0.00,WUHU216HW,2013-02-14 14:30:00,
2013-02-14 08:35:00,35.3,29.7,29.81,WNW,293,2.2,2.9,80,0.00,,,0.00,WUHU216HW,2013-02-14 14:35:00,
2013-02-14 08:40:00,35.5,29.9,29.80,West,270,1.8,4.0,80,0.00,,,0.00,WUHU216HW,2013-02-14 14:40:00,
2013-02-14 08:45:00,35.8,30.2,29.81,West,270,0.9,4.0,80,0.00,,,0.00,WUHU216HW,2013-02-14 14:45:00,
2013-02-14 08:50:00,36.0,30.4,29.81,WNW,293,3.4,3.4,80,0.00,,,0.00,WUHU216HW,2013-02-14 14:50:00,
2013-02-14 08:55:00,36.4,30.8,29.81,West,270,0.0,3.4,80,0.00,,,0.00,WUHU216HW,2013-02-14 14:55:00,
2013-02-14 09:00:00,36.9,31.0,29.81,SW,225,1.3,3.1,79,0.00,,,0.00,WUHU216HW,2013-02-14 15:00:00,
2013-02-14 09:05:00,37.1,31.1,29.81,WNW,293,1.1,3.1,79,0.00,,,0.00,WUHU216HW,2013-02-14 15:05:00,
2013-02-14 09:10:00,37.3,31.3,29.81,West,270,1.3,1.8,79,0.00,,,0.00,WUHU216HW,2013-02-14 15:10:00,
2013-02-14 09:15:00,37.8,31.6,29.81,WNW,293,2.2,2.5,78,0.00,,,0.00,WUHU216HW,2013-02-14 15:15:00,
2013-02-14 09:20:00,37.8,31.2,29.82,West,270,3.1,3.6,77,0.00,,,0.00,WUHU216HW,2013-02-14 15:20:00,
2013-02-14 09:25:00,37.8,30.9,29.82,WSW,248,3.6,5.4,76,0.00,,,0.00,WUHU216HW,2013-02-14 15:25:00,
2013-02-14 09:30:00,37.8,30.9,29.82,WNW,293,3.4,6.0,76,0.00,,,0.00,WUHU216HW,2013-02-14 15:30:00,
2013-02-14 09:35:00,37.8,30.9,29.82,SW,225,2.5,6.0,76,0.00,,,0.00,WUHU216HW,2013-02-14 15:35:00,
2013-02-14 09:40:00,38.0,31.4,29.82,WNW,293,5.4,6.0,77,0.00,,,0.00,WUHU216HW,2013-02-14 15:40:00,
2013-02-14 09:45:00,38.0,31.1,29.82,West,270,6.5,6.7,76,0.00,,,0.00,WUHU216HW,2013-02-14 15:45:00,
2013-02-14 09:50:00,38.2,31.6,29.82,West,270,4.0,6.7,77,0.00,,,0.00,WUHU216HW,2013-02-14 15:50:00,
2013-02-14 09:55:00,38.5,32.0,29.83,WNW,293,3.4,7.8,77,0.00,,,0.00,WUHU216HW,2013-02-14 15:55:00,
2013-02-14 10:00:00,38.9,32.0,29.83,WSW,248,4.7,7.8,76,0.00,,,0.00,WUHU216HW,2013-02-14 16:00:00,
2013-02-14 10:05:00,39.1,32.1,29.83,WNW,293,4.3,6.9,76,0.00,,,0.00,WUHU216HW,2013-02-14 16:05:00,
2013-02-14 10:10:00,39.6,32.0,29.83,West,270,6.0,6.3,74,0.00,,,0.00,WUHU216HW,2013-02-14 16:10:00,
2013-02-14 10:15:00,40.0,32.3,29.83,West,270,5.8,6.3,74,0.00,,,0.00,WUHU216HW,2013-02-14 16:15:00,
2013-02-14 10:20:00,40.7,32.3,29.83,West,270,4.0,8.3,72,0.00,,,0.00,WUHU216HW,2013-02-14 16:20:00,
2013-02-14 10:25:00,40.7,32.1,29.83,NW,315,6.3,8.3,71,0.00,,,0.00,WUHU216HW,2013-02-14 16:25:00,
2013-02-14 10:30:00,40.5,31.9,29.83,West,270,4.7,7.2,71,0.00,,,0.00,WUHU216HW,2013-02-14 16:30:00,
2013-02-14 10:35:00,40.3,31.0,29.84,North,0,8.1,8.1,69,0.00,,,0.00,WUHU216HW,2013-02-14 16:35:00,
2013-02-14 10:40:00,40.3,31.0,29.83,WNW,293,4.7,8.1,69,0.00,,,0.00,WUHU216HW,2013-02-14 16:40:00,
2013-02-14 10:45:00,40.7,30.5,29.84,North,0,5.4,8.5,67,0.00,,,0.00,WUHU216HW,2013-02-14 16:45:00,
2013-02-14 10:50:00,41.0,30.9,29.84,West,270,6.0,8.5,67,0.00,,,0.00,WUHU216HW,2013-02-14 16:50:00,
2013-02-14 10:55:00,41.0,30.9,29.84,NW,315,6.3,7.6,67,0.00,,,0.00,WUHU216HW,2013-02-14 16:55:00,
2013-02-14 11:00:00,41.4,30.5,29.84,WNW,293,3.4,7.6,65,0.00,,,0.00,WUHU216HW,2013-02-14 17:00:00,
2013-02-14 11:05:00,41.2,30.7,29.84,WSW,248,5.4,9.8,66,0.00,,,0.00,WUHU216HW,2013-02-14 17:05:00,
2013-02-14 11:10:00,41.4,30.9,29.84,West,270,3.6,9.8,66,0.00,,,0.00,WUHU216HW,2013-02-14 17:10:00,
2013-02-14 11:15:00,41.6,31.1,29.84,WNW,293,5.4,6.7,66,0.00,,,0.00,WUHU216HW,2013-02-14 17:15:00,
2013-02-14 11:20:00,41.6,31.4,29.84,WNW,293,4.3,6.7,67,0.00,,,0.00,WUHU216HW,2013-02-14 17:20:00,
2013-02-14 11:25:00,41.8,31.6,29.84,West,270,3.4,6.7,67,0.00,,,0.00,WUHU216HW,2013-02-14 17:25:00,
2013-02-14 11:30:00,42.1,31.6,29.84,NW,315,3.4,5.8,66,0.00,,,0.00,WUHU216HW,2013-02-14 17:30:00,
2013-02-14 11:35:00,42.8,29.0,29.84,West,270,5.1,12.8,58,0.00,,,0.00,WUHU216HW,2013-02-14 17:35:00,
2013-02-14 11:40:00,42.7,27.1,29.84,WNW,293,5.4,12.8,54,0.00,,,0.00,WUHU216HW,2013-02-14 17:40:00,
2013-02-14 11:45:00,42.8,27.7,29.84,North,0,8.5,9.2,55,0.00,,,0.00,WUHU216HW,2013-02-14 17:45:00,
2013-02-14 11:50:00,43.4,26.9,29.84,West,270,2.9,10.1,52,0.00,,,0.00,WUHU216HW,2013-02-14 17:50:00,
2013-02-14 12:30:00,44.3,24.7,29.86,NNE,23,10.5,10.5,46,0.00,,,0.00,WUHU216HW,2013-02-14 18:30:00,
2013-02-14 12:35:00,44.3,24.1,29.85,WNW,293,10.7,12.1,45,0.00,,,0.00,WUHU216HW,2013-02-14 18:35:00,
2013-02-14 12:40:00,43.9,24.9,29.85,North,0,6.9,12.5,47,0.00,,,0.00,WUHU216HW,2013-02-14 18:40:00,
2013-02-14 12:45:00,43.6,25.1,29.85,WNW,293,4.7,12.5,48,0.00,,,0.00,WUHU216HW,2013-02-14 18:45:00,
2013-02-14 12:50:00,43.2,24.9,29.85,North,0,9.6,9.8,48,0.00,,,0.00,WUHU216HW,2013-02-14 18:50:00,
2013-02-14 12:55:00,42.7,24.8,29.85,NE,45,4.9,9.8,49,0.00,,,0.00,WUHU216HW,2013-02-14 18:55:00,
2013-02-14 13:00:00,42.8,25.6,29.85,NW,315,5.4,9.6,50,0.00,,,0.00,WUHU216HW,2013-02-14 19:00:00,
2013-02-14 13:05:00,43.0,25.2,29.86,NNW,338,3.8,10.7,49,0.00,,,0.00,WUHU216HW,2013-02-14 19:05:00,
2013-02-14 13:10:00,43.4,24.9,29.85,NNW,338,5.6,10.7,48,0.00,,,0.00,WUHU216HW,2013-02-14 19:10:00,
2013-02-14 13:15:00,43.7,25.3,29.85,North,0,4.0,9.2,48,0.00,,,0.00,WUHU216HW,2013-02-14 19:15:00,
2013-02-14 13:20:00,44.3,24.7,29.85,WSW,248,5.1,7.6,46,0.00,,,0.00,WUHU216HW,2013-02-14 19:20:00,
2013-02-14 13:25:00,43.2,24.3,29.86,North,0,6.9,9.2,47,0.00,,,0.00,WUHU216HW,2013-02-14 19:25:00,
2013-02-14 13:30:00,43.2,24.3,29.86,NNW,338,5.4,9.2,47,0.00,,,0.00,WUHU216HW,2013-02-14 19:30:00,
2013-02-14 13:35:00,43.6,25.1,29.86,NW,315,6.5,8.5,48,0.00,,,0.00,WUHU216HW,2013-02-14 19:35:00,
2013-02-14 13:40:00,43.0,24.7,29.86,West,270,8.3,12.8,48,0.00,,,0.00,WUHU216HW,2013-02-14 19:40:00,
2013-02-14 13:45:00,43.0,24.7,29.86,WNW,293,5.1,12.8,48,0.00,,,0.00,WUHU216HW,2013-02-14 19:45:00,
2013-02-14 13:50:00,43.0,24.7,29.86,NW,315,4.0,9.8,48,0.00,,,0.00,WUHU216HW,2013-02-14 19:50:00,
2013-02-14 13:55:00,43.2,24.3,29.86,WNW,293,5.4,9.8,47,0.00,,,0.00,WUHU216HW,2013-02-14 19:55:00,
2013-02-14 14:00:00,43.2,24.9,29.86,West,270,7.2,8.3,48,0.00,,,0.00,WUHU216HW,2013-02-14 20:00:00,
2013-02-14 14:05:00,43.0,24.1,29.86,SW,225,3.8,8.7,47,0.00,,,0.00,WUHU216HW,2013-02-14 20:05:00,
2013-02-14 14:10:00,42.8,24.5,29.87,WNW,293,6.9,9.4,48,0.00,,,0.00,WUHU216HW,2013-02-14 20:10:00,
2013-02-14 14:15:00,42.8,23.9,29.87,WNW,293,3.4,9.8,47,0.00,,,0.00,WUHU216HW,2013-02-14 20:15:00,
2013-02-14 14:20:00,42.7,23.8,29.86,WNW,293,6.9,9.8,47,0.00,,,0.00,WUHU216HW,2013-02-14 20:20:00,
2013-02-14 14:25:00,42.7,23.8,29.86,NNW,338,8.5,8.5,47,0.00,,,0.00,WUHU216HW,2013-02-14 20:25:00,
2013-02-14 14:30:00,42.7,23.8,29.87,WNW,293,5.4,8.5,47,0.00,,,0.00,WUHU216HW,2013-02-14 20:30:00,
2013-02-14 14:35:00,42.7,23.8,29.87,NW,315,3.4,8.5,47,0.00,,,0.00,WUHU216HW,2013-02-14 20:35:00,
2013-02-14 14:40:00,42.7,23.8,29.87,NW,315,5.8,10.5,47,0.00,,,0.00,WUHU216HW,2013-02-14 20:40:00,
2013-02-14 14:45:00,42.7,24.3,29.87,WNW,293,8.5,10.5,48,0.00,,,0.00,WUHU216HW,2013-02-14 20:45:00,
2013-02-14 14:50:00,42.7,24.3,29.87,West,270,8.1,9.2,48,0.00,,,0.00,WUHU216HW,2013-02-14 20:50:00,
2013-02-14 14:55:00,42.5,23.6,29.88,SE,135,4.9,10.3,47,0.00,,,0.00,WUHU216HW,2013-02-14 20:55:00,
2013-02-14 15:00:00,42.1,23.8,29.87,NNE,23,6.9,10.3,48,0.00,,,0.00,WUHU216HW,2013-02-14 21:00:00,
2013-02-14 15:05:00,42.3,23.9,29.87,NNW,338,4.5,9.8,48,0.00,,,0.00,WUHU216HW,2013-02-14 21:05:00,
2013-02-14 15:10:00,42.1,24.3,29.88,WNW,293,3.6,9.8,49,0.00,,,0.00,WUHU216HW,2013-02-14 21:10:00,
2013-02-14 15:15:00,42.1,24.3,29.88,WNW,293,5.4,8.5,49,0.00,,,0.00,WUHU216HW,2013-02-14 21:15:00,
2013-02-14 15:20:00,42.7,24.8,29.88,NNW,338,2.5,8.5,49,0.00,,,0.00,WUHU216HW,2013-02-14 21:20:00,
2013-02-14 15:25:00,42.3,24.5,29.88,West,270,5.6,7.6,49,0.00,,,0.00,WUHU216HW,2013-02-14 21:25:00,
2013-02-14 15:30:00,42.1,24.3,29.88,NNW,338,6.9,9.2,49,0.00,,,0.00,WUHU216HW,2013-02-14 21:30:00,
2013-02-14 15:35:00,41.8,24.5,29.89,NNE,23,3.6,9.2,50,0.00,,,0.00,WUHU216HW,2013-02-14 21:35:00,
2013-02-14 15:40:00,41.6,24.3,29.89,NW,315,7.4,7.4,50,0.00,,,0.00,WUHU216HW,2013-02-14 21:40:00,
2013-02-14 15:45:00,41.4,24.6,29.89,WNW,293,4.7,7.4,51,0.00,,,0.00,WUHU216HW,2013-02-14 21:45:00,
2013-02-14 15:50:00,41.4,25.0,29.89,SE,135,3.8,7.4,52,0.00,,,0.00,WUHU216HW,2013-02-14 21:50:00,
2013-02-14 15:55:00,41.4,25.5,29.89,WNW,293,2.0,7.2,53,0.00,,,0.00,WUHU216HW,2013-02-14 21:55:00,
2013-02-14 16:00:00,41.4,25.0,29.89,WNW,293,1.1,8.3,52,0.00,,,0.00,WUHU216HW,2013-02-14 22:00:00,
2013-02-14 16:05:00,41.4,25.5,29.89,North,0,2.9,8.3,53,0.00,,,0.00,WUHU216HW,2013-02-14 22:05:00,
2013-02-14 16:10:00,41.4,25.5,29.89,WNW,293,1.8,5.1,53,0.00,,,0.00,WUHU216HW,2013-02-14 22:10:00,
2013-02-14 16:15:00,41.4,25.5,29.90,North,0,4.7,6.3,53,0.00,,,0.00,WUHU216HW,2013-02-14 22:15:00,
2013-02-14 16:20:00,41.4,25.5,29.90,West,270,5.1,6.3,53,0.00,,,0.00,WUHU216HW,2013-02-14 22:20:00,
2013-02-14 16:25:00,41.0,26.0,29.90,North,0,4.7,6.5,55,0.00,,,0.00,WUHU216HW,2013-02-14 22:25:00,
2013-02-14 16:30:00,40.0,28.4,29.90,NNW,338,3.4,6.5,63,0.00,,,0.00,WUHU216HW,2013-02-14 22:30:00,
2013-02-14 16:35:00,39.6,27.5,29.91,NW,315,0.9,7.6,62,0.00,,,0.00,WUHU216HW,2013-02-14 22:35:00,
2013-02-14 16:40:00,40.0,27.5,29.91,NNW,338,4.3,7.6,61,0.00,,,0.00,WUHU216HW,2013-02-14 22:40:00,
2013-02-14 16:45:00,39.8,28.2,29.91,WNW,293,4.5,9.2,63,0.00,,,0.00,WUHU216HW,2013-02-14 22:45:00,
2013-02-14 16:50:00,38.9,28.5,29.91,NNW,338,4.0,9.2,66,0.00,,,0.00,WUHU216HW,2013-02-14 22:50:00,
2013-02-14 16:55:00,38.5,28.8,29.91,WNW,293,3.8,6.3,68,0.00,,,0.00,WUHU216HW,2013-02-14 22:55:00,
2013-02-14 17:00:00,38.3,29.1,29.91,WNW,293,0.9,5.6,69,0.00,,,0.00,WUHU216HW,2013-02-14 23:00:00,
2013-02-14 17:05:00,38.5,29.3,29.91,NNW,338,2.7,4.5,69,0.00,,,0.00,WUHU216HW,2013-02-14 23:05:00,
2013-02-14 17:10:00,38.3,29.1,29.92,NNW,338,1.3,4.5,69,0.00,,,0.00,WUHU216HW,2013-02-14 23:10:00,
2013-02-14 17:15:00,38.2,29.3,29.92,North,0,3.6,4.7,70,0.00,,,0.00,WUHU216HW,2013-02-14 23:15:00,
2013-02-14 17:20:00,38.2,28.9,29.92,NW,315,2.5,5.1,69,0.00,,,0.00,WUHU216HW,2013-02-14 23:20:00,
2013-02-14 17:25:00,37.8,28.5,29.92,North,0,5.6,5.6,69,0.00,,,0.00,WUHU216HW,2013-02-14 23:25:00,
2013-02-14 17:30:00,37.8,29.3,29.92,East,90,1.1,5.6,71,0.00,,,0.00,WUHU216HW,2013-02-14 23:30:00,
2013-02-14 17:35:00,37.6,29.8,29.92,NNE,23,1.8,5.6,73,0.00,,,0.00,WUHU216HW,2013-02-14 23:35:00,
2013-02-14 17:40:00,37.1,29.5,29.93,NNW,338,4.0,5.6,74,0.00,,,0.00,WUHU216HW,2013-02-14 23:40:00,
2013-02-14 17:45:00,36.9,29.7,29.93,WNW,293,5.4,5.8,75,0.00,,,0.00,WUHU216HW,2013-02-14 23:45:00,
2013-02-14 17:50:00,36.7,29.9,29.93,NE,45,3.1,5.8,76,0.00,,,0.00,WUHU216HW,2013-02-14 23:50:00,
2013-02-14 17:55:00,36.4,29.5,29.93,North,0,6.9,6.9,76,0.00,,,0.00,WUHU216HW,2013-02-14 23:55:00,
2013-02-14 18:00:00,36.0,29.8,29.93,NNE,23,3.4,6.9,78,0.00,,,0.00,WUHU216HW,2013-02-15 00:00:00,
2013-02-14 18:05:00,35.6,29.7,29.93,WNW,293,4.0,6.9,79,0.00,,,0.00,WUHU216HW,2013-02-15 00:05:00,
2013-02-14 18:10:00,35.6,30.1,29.93,NNW,338,4.9,5.4,80,0.00,,,0.00,WUHU216HW,2013-02-15 00:10:00,
2013-02-14 18:15:00,35.3,30.0,29.94,West,270,4.0,5.6,81,0.00,,,0.00,WUHU216HW,2013-02-15 00:15:00,
2013-02-14 18:20:00,34.7,29.7,29.94,North,0,2.5,5.6,82,0.00,,,0.00,WUHU216HW,2013-02-15 00:20:00,
2013-02-14 18:25:00,34.4,29.3,29.93,NW,315,3.4,4.0,82,0.00,,,0.00,WUHU216HW,2013-02-15 00:25:00,
2013-02-14 18:30:00,34.4,29.3,29.94,WNW,293,1.1,3.4,82,0.00,,,0.00,WUHU216HW,2013-02-15 00:30:00,
2013-02-14 18:35:00,34.4,29.3,29.94,North,0,1.8,3.4,82,0.00,,,0.00,WUHU216HW,2013-02-15 00:35:00,
2013-02-14 18:40:00,34.2,29.2,29.94,North,0,2.5,3.1,82,0.00,,,0.00,WUHU216HW,2013-02-15 00:40:00,
2013-02-14 18:45:00,34.2,29.2,29.95,WNW,293,3.6,3.6,82,0.00,,,0.00,WUHU216HW,2013-02-15 00:45:00,
2013-02-14 18:50:00,34.2,29.2,29.95,West,270,2.5,3.6,82,0.00,,,0.00,WUHU216HW,2013-02-15 00:50:00,
2013-02-14 18:55:00,34.2,29.2,29.95,NW,315,1.8,3.8,82,0.00,,,0.00,WUHU216HW,2013-02-15 00:55:00,
2013-02-14 18:59:00,34.2,29.5,29.95,West,270,2.5,4.9,83,0.00,,,0.00,WUHU216HW,2013-02-15 00:59:00,
2013-02-14 19:04:00,34.2,29.5,29.95,WNW,293,1.3,5.4,83,0.00,,,0.00,WUHU216HW,2013-02-15 01:04:00,
2013-02-14 19:09:00,34.2,29.5,29.96,WNW,293,3.4,5.4,83,0.00,,,0.00,WUHU216HW,2013-02-15 01:09:00,
2013-02-14 19:14:00,34.2,29.5,29.96,WNW,293,2.5,4.0,83,0.00,,,0.00,WUHU216HW,2013-02-15 01:14:00,
2013-02-14 19:19:00,34.2,29.5,29.96,West,270,2.7,4.7,83,0.00,,,0.00,WUHU216HW,2013-02-15 01:19:00,
2013-02-14 19:24:00,34.0,29.0,29.96,West,270,1.8,4.7,82,0.00,,,0.00,WUHU216HW,2013-02-15 01:24:00,
2013-02-14 19:29:00,33.8,28.5,29.96,West,270,4.0,5.1,81,0.00,,,0.00,WUHU216HW,2013-02-15 01:29:00,
2013-02-14 19:34:00,33.8,28.5,29.96,NW,315,1.1,5.1,81,0.00,,,0.00,WUHU216HW,2013-02-15 01:34:00,
2013-02-14 19:39:00,33.8,28.8,29.96,NNW,338,3.1,4.7,82,0.00,,,0.00,WUHU216HW,2013-02-15 01:39:00,
2013-02-14 19:44:00,33.8,28.8,29.96,WNW,293,5.4,5.4,82,0.00,,,0.00,WUHU216HW,2013-02-15 01:44:00,
2013-02-14 19:49:00,33.1,28.2,29.97,West,270,6.3,9.8,82,0.00,,,0.00,WUHU216HW,2013-02-15 01:49:00,
2013-02-14 19:54:00,32.2,27.4,29.97,East,90,4.5,9.8,82,0.00,,,0.00,WUHU216HW,2013-02-15 01:54:00,
2013-02-14 19:59:00,31.5,26.6,29.98,NE,45,5.4,9.2,82,0.00,,,0.00,WUHU216HW,2013-02-15 01:59:00,
2013-02-14 20:04:00,30.8,26.3,29.99,NE,45,7.6,12.8,83,0.00,,,0.00,WUHU216HW,2013-02-15 02:04:00,
2013-02-14 20:09:00,30.1,25.6,29.99,NNE,23,9.8,15.0,83,0.00,,,0.00,WUHU216HW,2013-02-15 02:09:00,
2013-02-14 20:14:00,29.9,25.4,30.00,NNE,23,4.9,15.0,83,0.00,,,0.00,WUHU216HW,2013-02-15 02:14:00,
2013-02-14 20:19:00,30.1,25.6,30.00,East,90,3.8,10.5,83,0.00,,,0.00,WUHU216HW,2013-02-15 02:19:00,
2013-02-14 20:24:00,30.1,25.6,30.01,NE,45,2.9,10.1,83,0.00,,,0.00,WUHU216HW,2013-02-15 02:24:00,
2013-02-14 20:29:00,29.7,24.3,30.01,North,0,8.1,10.3,80,0.00,,,0.00,WUHU216HW,2013-02-15 02:29:00,
2013-02-14 20:34:00,29.5,23.8,30.01,NNE,23,8.7,10.3,79,0.00,,,0.00,WUHU216HW,2013-02-15 02:34:00,
2013-02-14 20:39:00,29.3,23.0,30.02,NE,45,6.9,10.5,77,0.00,,,0.00,WUHU216HW,2013-02-15 02:39:00,
2013-02-14 20:44:00,29.5,22.9,30.02,NNE,23,4.5,10.5,76,0.00,,,0.00,WUHU216HW,2013-02-15 02:44:00,
2013-02-14 20:49:00,29.7,23.1,30.02,NNE,23,2.5,6.9,76,0.00,,,0.00,WUHU216HW,2013-02-15 02:49:00,
2013-02-14 20:54:00,29.7,23.1,30.02,ENE,68,8.1,8.1,76,0.00,,,0.00,WUHU216HW,2013-02-15 02:54:00,
2013-02-14 20:59:00,29.5,21.9,30.03,NNE,23,8.1,10.5,73,0.00,,,0.00,WUHU216HW,2013-02-15 02:59:00,
2013-02-14 21:04:00,29.3,21.8,30.04,NNE,23,6.9,10.5,73,0.00,,,0.00,WUHU216HW,2013-02-15 03:04:00,
2013-02-14 21:09:00,29.2,21.6,30.04,NNE,23,4.9,8.5,73,0.00,,,0.00,WUHU216HW,2013-02-15 03:09:00,
2013-02-14 21:14:00,29.0,21.4,30.04,NNW,338,4.0,7.6,73,0.00,,,0.00,WUHU216HW,2013-02-15 03:14:00,
2013-02-14 21:19:00,28.8,20.9,30.04,NNE,23,3.1,6.9,72,0.00,,,0.00,WUHU216HW,2013-02-15 03:19:00,
2013-02-14 21:24:00,28.8,20.0,30.04,NNE,23,3.4,6.9,69,0.00,,,0.00,WUHU216HW,2013-02-15 03:24:00,
2013-02-14 21:29:00,28.4,18.9,30.05,North,0,6.5,6.9,67,0.00,,,0.00,WUHU216HW,2013-02-15 03:29:00,
2013-02-14 21:34:00,28.1,17.8,30.05,North,0,4.7,6.9,65,0.00,,,0.00,WUHU216HW,2013-02-15 03:34:00,
2013-02-14 21:39:00,27.7,17.5,30.05,West,270,2.9,7.2,65,0.00,,,0.00,WUHU216HW,2013-02-15 03:39:00,
2013-02-14 21:44:00,27.7,16.7,30.06,WNW,293,3.6,7.6,63,0.00,,,0.00,WUHU216HW,2013-02-15 03:44:00,
2013-02-14 21:49:00,27.7,17.1,30.06,WNW,293,2.2,7.6,64,0.00,,,0.00,WUHU216HW,2013-02-15 03:49:00,
2013-02-14 21:54:00,27.5,17.3,30.06,NW,315,2.5,6.9,65,0.00,,,0.00,WUHU216HW,2013-02-15 03:54:00,
2013-02-14 21:59:00,27.4,17.5,30.06,NNW,338,4.7,6.9,66,0.00,,,0.00,WUHU216HW,2013-02-15 03:59:00,
2013-02-14 22:04:00,27.2,17.6,30.07,NNE,23,3.1,6.9,67,0.00,,,0.00,WUHU216HW,2013-02-15 04:04:00,
2013-02-14 22:09:00,26.8,18.4,30.07,NW,315,3.6,7.6,70,0.00,,,0.00,WUHU216HW,2013-02-15 04:09:00,
2013-02-14 22:14:00,26.6,18.2,30.08,NNW,338,4.0,7.6,70,0.00,,,0.00,WUHU216HW,2013-02-15 04:14:00,
2013-02-14 22:19:00,26.3,18.1,30.08,ENE,68,1.8,7.2,71,0.00,,,0.00,WUHU216HW,2013-02-15 04:19:00,
2013-02-14 22:24:00,26.1,17.6,30.08,NNW,338,3.4,7.4,70,0.00,,,0.00,WUHU216HW,2013-02-15 04:24:00,
2013-02-14 22:29:00,25.6,16.4,30.08,NNW,338,1.8,8.1,68,0.00,,,0.00,WUHU216HW,2013-02-15 04:29:00,
2013-02-14 22:34:00,25.4,16.2,30.09,WNW,293,3.6,8.3,68,0.00,,,0.00,WUHU216HW,2013-02-15 04:34:00,
2013-02-14 22:39:00,25.2,16.4,30.09,NNE,23,2.2,8.3,69,0.00,,,0.00,WUHU216HW,2013-02-15 04:39:00,
2013-02-14 22:44:00,25.0,16.6,30.09,NNE,23,4.5,6.9,70,0.00,,,0.00,WUHU216HW,2013-02-15 04:44:00,
2013-02-14 22:49:00,24.8,17.4,30.09,West,270,4.5,8.5,73,0.00,,,0.00,WUHU216HW,2013-02-15 04:49:00,
2013-02-14 22:54:00,24.5,18.6,30.09,North,0,2.9,8.5,78,0.00,,,0.00,WUHU216HW,2013-02-15 04:54:00,
2013-02-14 22:59:00,24.1,18.5,30.09,NNE,23,2.7,7.6,79,0.00,,,0.00,WUHU216HW,2013-02-15 04:59:00,
2013-02-14 23:00:00,24.1,18.5,30.09,NNW,338,5.4,7.6,79,0.00,,,0.00,WUHU216HW,2013-02-15 05:00:00,
2013-02-14 23:05:00,23.8,18.3,30.10,NNE,23,8.5,8.5,79,0.00,,,0.00,WUHU216HW,2013-02-15 05:05:00,
2013-02-14 23:10:00,23.4,17.9,30.10,North,0,6.3,8.5,79,0.00,,,0.00,WUHU216HW,2013-02-15 05:10:00,
2013-02-14 23:15:00,23.2,17.7,30.10,WNW,293,6.9,8.5,79,0.00,,,0.00,WUHU216HW,2013-02-15 05:15:00,
2013-02-14 23:20:00,22.9,17.0,30.11,North,0,4.7,10.7,78,0.00,,,0.00,WUHU216HW,2013-02-15 05:20:00,
2013-02-14 23:25:00,22.5,16.7,30.11,NNW,338,4.7,10.7,78,0.00,,,0.00,WUHU216HW,2013-02-15 05:25:00,
2013-02-14 23:30:00,22.1,16.0,30.11,North,0,4.7,8.7,77,0.00,,,0.00,WUHU216HW,2013-02-15 05:30:00,
2013-02-14 23:35:00,21.8,15.7,30.11,North,0,5.4,8.9,77,0.00,,,0.00,WUHU216HW,2013-02-15 05:35:00,
2013-02-14 23:40:00,21.4,15.3,30.11,NW,315,5.6,8.9,77,0.00,,,0.00,WUHU216HW,2013-02-15 05:40:00,
2013-02-14 23:45:00,21.2,14.8,30.11,NW,315,3.1,8.5,76,0.00,,,0.00,WUHU216HW,2013-02-15 05:45:00,
2013-02-14 23:50:00,21.1,14.6,30.12,WNW,293,3.8,8.7,76,0.00,,,0.00,WUHU216HW,2013-02-15 05:50:00,
2013-02-14 23:55:00,20.9,14.4,30.12,North,0,1.8,8.7,76,0.00,,,0.00,WUHU216HW,2013-02-15 05:55:00,